createdAt,value
2023-08-14T00:00:45.279Z,5.38
2023-08-14T00:03:12.386Z,5.95
2023-08-14T00:05:39.148Z,6.10
2023-08-14T00:08:06.302Z,5.43
2023-08-14T00:10:34.575Z,5.70
2023-08-14T00:13:01.341Z,5.93
2023-08-14T00:15:28.294Z,5.75
2023-08-14T00:17:55.095Z,5.70
2023-08-14T00:20:22.028Z,6.20
2023-08-14T00:22:48.864Z,6.43
2023-08-14T00:25:15.671Z,5.85
2023-08-14T00:27:43.906Z,5.68
2023-08-14T00:30:11.145Z,5.45
2023-08-14T00:32:38.034Z,5.95
2023-08-14T00:35:05.293Z,5.38
2023-08-14T00:37:41.372Z,6.05
2023-08-14T00:40:09.072Z,6.13
2023-08-14T00:42:35.850Z,6.50
2023-08-14T00:45:04.690Z,5.90
2023-08-14T00:47:31.514Z,5.95
2023-08-14T00:49:58.374Z,5.78
2023-08-14T00:52:25.499Z,5.45
2023-08-14T00:54:52.459Z,5.68
2023-08-14T00:57:19.167Z,6.40
2023-08-14T00:59:45.929Z,6.25
2023-08-14T01:02:14.285Z,6.00
2023-08-14T01:04:41.294Z,6.00
2023-08-14T01:07:08.172Z,6.22
2023-08-14T01:09:34.853Z,6.20
2023-08-14T01:12:04.340Z,5.68
2023-08-14T01:14:31.294Z,5.93
2023-08-14T01:16:59.657Z,6.25
2023-08-14T01:19:30.308Z,5.72
2023-08-14T01:22:03.929Z,5.82
2023-08-14T01:24:39.691Z,6.30
2023-08-14T01:27:07.896Z,6.35
2023-08-14T01:29:34.821Z,6.28
2023-08-14T01:32:01.579Z,6.57
2023-08-14T01:34:28.431Z,5.90
2023-08-14T01:36:58.407Z,5.63
2023-08-14T01:39:25.419Z,6.32
2023-08-14T01:41:54.411Z,6.10
2023-08-14T01:44:23.788Z,6.30
2023-08-14T01:46:50.541Z,6.60
2023-08-14T01:49:18.174Z,6.30
2023-08-14T01:51:44.905Z,5.70
2023-08-14T01:54:11.684Z,5.88
2023-08-14T01:56:38.488Z,5.95
2023-08-14T01:59:05.273Z,6.22
2023-08-14T02:01:33.643Z,6.32
2023-08-14T02:04:00.469Z,6.35
2023-08-14T02:06:27.208Z,6.28
2023-08-14T02:08:54.126Z,6.43
2023-08-14T02:11:20.899Z,6.18
2023-08-14T02:13:47.694Z,6.97
2023-08-14T02:16:14.483Z,6.30
2023-08-14T02:18:42.638Z,6.10
2023-08-14T02:21:09.472Z,5.82
2023-08-14T02:23:36.248Z,5.97
2023-08-14T02:26:03.706Z,6.18
2023-08-14T02:28:30.445Z,5.85
2023-08-14T02:30:57.151Z,6.35
2023-08-14T02:33:24.147Z,6.30
2023-08-14T02:35:52.325Z,5.85
2023-08-14T02:38:19.454Z,5.72
2023-08-14T02:40:46.257Z,5.40
2023-08-14T02:43:13.254Z,5.97
2023-08-14T02:45:40.757Z,6.20
2023-08-14T02:48:07.797Z,5.82
2023-08-14T02:50:34.551Z,5.65
2023-08-14T02:53:02.839Z,6.10
2023-08-14T02:55:29.646Z,5.88
2023-08-14T02:57:56.405Z,5.93
2023-08-14T03:00:23.179Z,5.85
2023-08-14T03:02:50.138Z,6.40
2023-08-14T03:05:17.502Z,6.43
2023-08-14T03:07:44.363Z,6.25
2023-08-14T03:10:12.540Z,6.13
2023-08-14T03:12:39.428Z,6.38
2023-08-14T03:15:06.573Z,6.20
2023-08-14T03:17:33.541Z,6.25
2023-08-14T03:20:00.318Z,5.95
2023-08-14T03:22:27.368Z,5.90
2023-08-14T03:24:54.653Z,5.75
2023-08-14T03:27:22.884Z,5.30
2023-08-14T03:29:49.610Z,6.55
2023-08-14T03:32:16.748Z,6.68
2023-08-14T03:34:43.728Z,6.35
2023-08-14T03:37:12.628Z,6.95
2023-08-14T03:39:39.641Z,6.25
2023-08-14T03:42:06.720Z,6.45
2023-08-14T03:44:34.956Z,6.47
2023-08-14T03:47:01.756Z,7.03
2023-08-14T03:49:28.495Z,7.00
2023-08-14T03:51:55.201Z,6.65
2023-08-14T03:54:22.082Z,7.05
2023-08-14T03:56:48.817Z,8.07
2023-08-14T03:59:15.584Z,6.65
2023-08-14T04:01:43.821Z,6.68
2023-08-14T04:04:10.582Z,7.35
2023-08-14T04:06:37.314Z,7.18
2023-08-14T04:09:04.692Z,7.05
2023-08-14T04:11:31.476Z,6.90
2023-08-14T04:13:58.349Z,7.28
2023-08-14T04:16:25.164Z,6.72
2023-08-14T04:18:53.261Z,6.95
2023-08-14T04:21:20.117Z,7.05
2023-08-14T04:23:46.945Z,7.00
2023-08-14T04:26:13.693Z,7.20
2023-08-14T04:28:40.433Z,7.25
2023-08-14T04:31:07.123Z,7.53
2023-08-14T04:33:33.902Z,7.22
2023-08-14T04:36:02.120Z,6.93
2023-08-14T04:38:28.904Z,7.00
2023-08-14T04:40:55.809Z,7.25
2023-08-14T04:43:22.627Z,23.92
2023-08-14T04:45:49.463Z,32.60
2023-08-14T04:48:18.177Z,17.85
2023-08-14T04:50:45.201Z,8.75
2023-08-14T04:53:13.419Z,7.18
2023-08-14T04:55:40.163Z,6.43
2023-08-14T04:58:06.913Z,6.25
2023-08-14T05:00:33.735Z,6.88
2023-08-14T05:03:00.533Z,6.53
2023-08-14T05:05:27.313Z,5.90
2023-08-14T05:07:54.126Z,6.78
2023-08-14T05:10:22.469Z,6.35
2023-08-14T05:12:49.170Z,6.00
2023-08-14T05:15:16.432Z,5.93
2023-08-14T05:17:43.206Z,6.22
2023-08-14T05:20:10.907Z,5.75
2023-08-14T05:22:37.668Z,5.82
2023-08-14T05:25:05.210Z,5.75
2023-08-14T05:27:33.393Z,5.60
2023-08-14T05:30:00.583Z,5.75
2023-08-14T05:32:27.609Z,5.38
2023-08-14T05:34:54.401Z,5.15
2023-08-14T05:37:21.244Z,5.47
2023-08-14T05:39:48.069Z,4.93
2023-08-14T05:42:14.826Z,5.28
2023-08-14T05:44:43.609Z,4.57
2023-08-14T05:47:10.408Z,5.28
2023-08-14T05:49:37.152Z,4.85
2023-08-14T05:52:04.325Z,4.80
2023-08-14T05:54:31.097Z,4.97
2023-08-14T05:56:57.836Z,4.32
2023-08-14T05:59:24.561Z,4.10
2023-08-14T06:01:55.604Z,3.70
2023-08-14T06:04:24.375Z,3.92
2023-08-14T06:06:51.664Z,3.42
2023-08-14T06:09:18.486Z,4.05
2023-08-14T06:11:45.253Z,3.70
2023-08-14T06:14:12.026Z,3.47
2023-08-14T06:16:38.837Z,3.67
2023-08-14T06:19:08.352Z,3.60
2023-08-14T06:21:35.129Z,3.67
2023-08-14T06:24:02.348Z,4.15
2023-08-14T06:26:29.139Z,3.90
2023-08-14T06:28:55.932Z,3.85
2023-08-14T06:31:22.879Z,3.50
2023-08-14T06:33:49.819Z,3.83
2023-08-14T06:36:18.768Z,3.92
2023-08-14T06:38:45.533Z,3.38
2023-08-14T06:41:12.389Z,3.25
2023-08-14T06:43:39.078Z,3.42
2023-08-14T06:46:05.813Z,3.30
2023-08-14T06:48:32.663Z,3.63
2023-08-14T06:50:59.507Z,3.85
2023-08-14T06:53:27.953Z,3.67
2023-08-14T06:55:54.791Z,3.38
2023-08-14T06:58:21.553Z,3.78
2023-08-14T07:00:48.650Z,3.30
2023-08-14T07:03:15.583Z,3.70
2023-08-14T07:05:42.592Z,3.47
2023-08-14T07:08:09.472Z,3.10
2023-08-14T07:10:38.395Z,2.88
2023-08-14T07:13:05.396Z,3.13
2023-08-14T07:15:32.154Z,3.25
2023-08-14T07:17:59.042Z,3.10
2023-08-14T07:20:26.499Z,2.72
2023-08-14T07:22:53.669Z,3.08
2023-08-14T07:25:20.488Z,3.03
2023-08-14T07:27:48.629Z,2.95
2023-08-14T07:30:15.414Z,2.88
2023-08-14T07:32:42.185Z,2.85
2023-08-14T07:35:09.217Z,2.50
2023-08-14T07:37:35.969Z,2.65
2023-08-14T07:40:02.841Z,2.97
2023-08-14T07:42:29.544Z,2.50
2023-08-14T07:44:58.252Z,3.13
2023-08-14T07:47:25.145Z,2.50
2023-08-14T07:49:51.933Z,2.47
2023-08-14T07:52:18.846Z,2.60
2023-08-14T07:54:45.704Z,2.53
2023-08-14T07:57:12.389Z,2.45
2023-08-14T07:59:39.240Z,2.20
2023-08-14T08:02:08.223Z,2.30
2023-08-14T08:04:39.613Z,2.47
2023-08-14T08:07:06.813Z,2.20
2023-08-14T08:09:33.907Z,2.40
2023-08-14T08:12:00.654Z,2.55
2023-08-14T08:14:27.938Z,2.08
2023-08-14T08:16:54.749Z,2.00
2023-08-14T08:19:22.839Z,2.20
2023-08-14T08:21:49.622Z,1.77
2023-08-14T08:24:16.512Z,1.98
2023-08-14T08:26:43.397Z,2.13
2023-08-14T08:29:10.105Z,1.85
2023-08-14T08:31:37.065Z,2.00
2023-08-14T08:34:04.292Z,1.90
2023-08-14T08:36:32.452Z,2.33
2023-08-14T08:38:59.377Z,1.73
2023-08-14T08:41:29.051Z,2.33
2023-08-14T08:43:58.660Z,2.30
2023-08-14T08:46:25.656Z,1.98
2023-08-14T08:48:52.419Z,1.80
2023-08-14T08:51:19.395Z,1.98
2023-08-14T08:53:47.622Z,1.92
2023-08-14T08:56:14.685Z,2.08
2023-08-14T08:58:41.440Z,1.95
2023-08-14T09:01:08.665Z,2.50
2023-08-14T09:03:35.617Z,1.80
2023-08-14T09:06:02.500Z,2.13
2023-08-14T09:08:29.534Z,1.98
2023-08-14T09:10:57.681Z,1.98
2023-08-14T09:13:31.741Z,1.92
2023-08-14T09:16:00.921Z,1.70
2023-08-14T09:18:27.669Z,1.80
2023-08-14T09:20:54.672Z,1.90
2023-08-14T09:23:21.414Z,1.52
2023-08-14T09:25:48.508Z,1.88
2023-08-14T09:28:16.813Z,1.60
2023-08-14T09:30:43.652Z,1.60
2023-08-14T09:33:11.151Z,1.40
2023-08-14T09:35:39.214Z,1.58
2023-08-14T09:38:06.081Z,1.50
2023-08-14T09:40:32.912Z,1.70
2023-08-14T09:43:00.345Z,1.58
2023-08-14T09:45:30.015Z,1.50
2023-08-14T09:47:59.554Z,1.50
2023-08-14T09:50:28.087Z,1.52
2023-08-14T09:52:56.944Z,1.45
2023-08-14T09:55:23.797Z,1.58
2023-08-14T09:57:50.595Z,1.65
2023-08-14T10:00:17.845Z,1.60
2023-08-14T10:02:47.430Z,1.48
2023-08-14T10:05:14.444Z,1.70
2023-08-14T10:07:41.320Z,1.50
2023-08-14T10:10:08.618Z,1.63
2023-08-14T10:12:38.705Z,1.70
2023-08-14T10:15:07.056Z,1.73
2023-08-14T10:17:35.695Z,1.65
2023-08-14T10:20:04.546Z,1.58
2023-08-14T10:22:32.395Z,1.60
2023-08-14T10:25:01.309Z,1.40
2023-08-14T10:27:28.046Z,1.60
2023-08-14T10:29:54.960Z,1.60
2023-08-14T10:32:21.721Z,1.52
2023-08-14T10:34:48.554Z,1.42
2023-08-14T10:37:26.876Z,1.20
2023-08-14T10:39:53.664Z,1.58
2023-08-14T10:42:21.623Z,1.50
2023-08-14T10:44:48.648Z,1.75
2023-08-14T10:47:15.438Z,1.25
2023-08-14T10:49:45.393Z,1.35
2023-08-14T10:52:14.637Z,1.60
2023-08-14T10:54:43.100Z,1.75
2023-08-14T10:57:11.552Z,1.60
2023-08-14T10:59:40.619Z,1.45
2023-08-14T11:02:13.668Z,1.67
2023-08-14T11:04:41.621Z,1.50
2023-08-14T11:07:08.645Z,1.50
2023-08-14T11:09:36.603Z,1.58
2023-08-14T11:12:05.989Z,1.42
2023-08-14T11:14:37.379Z,1.60
2023-08-14T11:17:04.465Z,1.60
2023-08-14T11:19:31.284Z,1.52
2023-08-14T11:21:58.082Z,1.50
2023-08-14T11:24:24.830Z,1.50
2023-08-14T11:26:53.362Z,1.50
2023-08-14T11:29:21.944Z,1.40
2023-08-14T11:31:49.820Z,1.45
2023-08-14T11:34:16.906Z,1.60
2023-08-14T11:37:05.756Z,1.45
2023-08-14T11:39:34.442Z,1.60
2023-08-14T11:42:01.262Z,1.40
2023-08-14T11:44:29.607Z,1.55
2023-08-14T11:46:56.452Z,1.40
2023-08-14T11:49:23.561Z,1.60
2023-08-14T11:51:50.984Z,1.70
2023-08-14T11:54:17.764Z,1.60
2023-08-14T11:56:44.575Z,1.45
2023-08-14T11:59:11.855Z,1.52
2023-08-14T12:01:41.304Z,1.70
2023-08-14T12:04:08.323Z,1.48
2023-08-14T12:06:35.233Z,1.63
2023-08-14T12:09:01.948Z,1.75
2023-08-14T12:11:28.668Z,1.50
2023-08-14T12:13:55.483Z,1.60
2023-08-14T12:16:22.549Z,1.70
2023-08-14T12:18:51.072Z,1.60
2023-08-14T12:21:17.831Z,1.70
2023-08-14T12:23:45.687Z,1.60
2023-08-14T12:26:12.444Z,1.50
2023-08-14T12:28:39.663Z,1.70
2023-08-14T12:31:06.650Z,1.70
2023-08-14T12:33:33.519Z,1.48
2023-08-14T12:36:01.696Z,1.85
2023-08-14T12:38:28.479Z,1.52
2023-08-14T12:40:55.204Z,1.83
2023-08-14T12:43:30.641Z,1.75
2023-08-14T12:46:03.608Z,1.55
2023-08-14T12:48:30.652Z,1.48
2023-08-14T12:51:02.824Z,1.70
2023-08-14T12:53:31.627Z,1.73
2023-08-14T12:56:03.584Z,1.73
2023-08-14T12:58:31.722Z,1.25
2023-08-14T13:01:04.657Z,1.70
2023-08-14T13:06:02.418Z,1.88
2023-08-14T13:08:29.304Z,1.80
2023-08-14T13:10:57.605Z,1.67
2023-08-14T13:13:24.387Z,1.50
2023-08-14T13:15:51.966Z,1.35
2023-08-14T13:18:18.858Z,1.80
2023-08-14T13:20:45.596Z,1.70
2023-08-14T13:23:12.441Z,1.40
2023-08-14T13:25:42.453Z,1.70
2023-08-14T13:28:11.916Z,1.70
2023-08-14T13:30:39.685Z,1.90
2023-08-14T13:33:07.691Z,1.67
2023-08-14T13:35:34.703Z,1.67
2023-08-14T13:38:02.101Z,1.80
2023-08-14T13:40:28.901Z,1.50
2023-08-14T13:42:55.610Z,1.70
2023-08-14T13:45:24.246Z,1.80
2023-08-14T13:47:55.755Z,1.55
2023-08-14T13:52:54.107Z,1.70
2023-08-14T13:55:21.407Z,2.00
2023-08-14T13:57:48.206Z,1.73
2023-08-14T14:00:15.306Z,1.77
2023-08-14T14:02:43.631Z,1.77
2023-08-14T14:05:10.365Z,1.80
2023-08-14T14:07:46.542Z,1.50
2023-08-14T14:10:18.149Z,1.80
2023-08-14T14:12:59.673Z,1.48
2023-08-14T14:15:28.030Z,1.80
2023-08-14T14:17:56.346Z,1.70
2023-08-14T14:20:23.456Z,2.00
2023-08-14T14:22:50.375Z,1.70
2023-08-14T14:25:17.390Z,1.58
2023-08-14T14:27:44.132Z,1.75
2023-08-14T14:30:12.212Z,1.80
2023-08-14T14:32:39.139Z,1.60
2023-08-14T14:35:08.031Z,1.48
2023-08-14T14:37:34.864Z,1.70
2023-08-14T14:40:02.164Z,1.98
2023-08-14T14:42:28.933Z,1.70
2023-08-14T14:44:55.653Z,1.70
2023-08-14T14:47:23.566Z,1.80
2023-08-14T14:49:50.836Z,1.50
2023-08-14T14:52:19.084Z,2.00
2023-08-14T14:54:45.850Z,2.00
2023-08-14T14:57:12.932Z,2.13
2023-08-14T14:59:40.891Z,1.80
2023-08-14T15:02:19.113Z,2.25
2023-08-14T15:04:50.634Z,2.00
2023-08-14T15:07:18.893Z,1.67
2023-08-14T15:09:45.801Z,2.08
2023-08-14T15:12:13.184Z,1.80
2023-08-14T15:14:40.001Z,1.80
2023-08-14T15:17:06.693Z,2.03
2023-08-14T15:19:33.433Z,2.00
2023-08-14T15:22:00.196Z,1.95
2023-08-14T15:24:28.259Z,1.75
2023-08-14T15:26:54.944Z,1.73
2023-08-14T15:29:21.676Z,2.00
2023-08-14T15:31:48.444Z,1.90
2023-08-14T15:34:17.922Z,2.10
2023-08-14T15:36:44.656Z,1.58
2023-08-14T15:39:11.375Z,2.10
2023-08-14T15:41:39.540Z,2.00
2023-08-14T15:44:08.879Z,2.00
2023-08-14T15:46:35.832Z,2.00
2023-08-14T15:49:02.951Z,1.95
2023-08-14T15:51:29.639Z,2.35
2023-08-14T15:53:56.401Z,1.60
2023-08-14T15:56:23.639Z,1.90
2023-08-14T15:58:51.855Z,2.10
2023-08-14T16:01:18.552Z,2.20
2023-08-14T16:03:45.440Z,2.00
2023-08-14T16:06:12.436Z,2.40
2023-08-14T16:08:39.137Z,2.00
2023-08-14T16:11:05.834Z,2.10
2023-08-14T16:13:34.054Z,2.10
2023-08-14T16:16:02.167Z,2.17
2023-08-14T16:18:29.054Z,2.30
2023-08-14T16:20:56.731Z,2.22
2023-08-14T16:23:24.809Z,2.33
2023-08-14T16:25:51.516Z,2.50
2023-08-14T16:28:18.267Z,2.00
2023-08-14T16:30:46.176Z,2.22
2023-08-14T16:33:14.515Z,2.10
2023-08-14T16:35:41.320Z,3.00
2023-08-14T16:38:08.077Z,2.03
2023-08-14T16:40:40.581Z,2.35
2023-08-14T16:43:07.272Z,2.20
2023-08-14T16:45:34.375Z,2.15
2023-08-14T16:48:01.091Z,2.63
2023-08-14T16:50:29.208Z,2.80
2023-08-14T16:52:56.047Z,2.42
2023-08-14T16:55:23.372Z,2.60
2023-08-14T16:57:50.084Z,2.40
2023-08-14T17:00:17.307Z,2.42
2023-08-14T17:02:44.412Z,2.63
2023-08-14T17:05:11.194Z,2.00
2023-08-14T17:07:39.305Z,2.50
2023-08-14T17:10:06.651Z,2.38
2023-08-14T17:12:34.246Z,2.63
2023-08-14T17:15:01.005Z,2.40
2023-08-14T17:17:27.756Z,2.72
2023-08-14T17:19:54.695Z,2.53
2023-08-14T17:22:21.419Z,2.75
2023-08-14T17:24:49.487Z,2.78
2023-08-14T17:27:16.545Z,2.60
2023-08-14T17:29:43.322Z,3.08
2023-08-14T17:32:11.644Z,3.15
2023-08-14T17:34:38.430Z,3.60
2023-08-14T17:37:05.450Z,3.08
2023-08-14T17:39:32.172Z,3.28
2023-08-14T17:42:00.328Z,2.60
2023-08-14T17:44:27.052Z,2.58
2023-08-14T17:46:54.056Z,3.17
2023-08-14T17:49:20.827Z,3.10
2023-08-14T17:51:48.338Z,2.90
2023-08-14T17:54:15.356Z,3.08
2023-08-14T17:56:42.071Z,3.13
2023-08-14T17:59:10.485Z,3.40
2023-08-14T18:01:37.232Z,3.03
2023-08-14T18:04:04.884Z,2.83
2023-08-14T18:06:31.598Z,3.17
2023-08-14T18:08:58.303Z,2.95
2023-08-14T18:11:25.222Z,3.60
2023-08-14T18:13:51.958Z,3.60
2023-08-14T18:16:20.050Z,4.18
2023-08-14T18:18:46.899Z,3.65
2023-08-14T18:21:16.583Z,4.30
2023-08-14T18:23:50.915Z,4.43
2023-08-14T18:26:17.684Z,4.10
2023-08-14T18:28:45.090Z,4.18
2023-08-14T18:31:12.170Z,3.83
2023-08-14T18:33:40.310Z,3.75
2023-08-14T18:36:06.990Z,3.60
2023-08-14T18:38:33.881Z,3.42
2023-08-14T18:41:00.603Z,3.63
2023-08-14T18:43:27.352Z,4.57
2023-08-14T18:45:55.430Z,3.92
2023-08-14T18:48:22.203Z,4.00
2023-08-14T18:50:50.932Z,3.80
2023-08-14T18:53:18.340Z,4.38
2023-08-14T18:55:46.256Z,4.30
2023-08-14T18:58:14.358Z,4.07
2023-08-14T19:00:41.108Z,4.50
2023-08-14T19:03:07.842Z,3.88
2023-08-14T19:05:35.005Z,4.50
2023-08-14T19:08:03.211Z,4.50
2023-08-14T19:10:31.877Z,4.40
2023-08-14T19:12:58.564Z,4.35
2023-08-14T19:15:26.637Z,4.40
2023-08-14T19:17:53.394Z,5.63
2023-08-14T19:20:20.197Z,4.82
2023-08-14T19:22:46.943Z,4.90
2023-08-14T19:25:16.381Z,4.93
2023-08-14T19:27:43.114Z,5.13
2023-08-14T19:30:10.569Z,5.18
2023-08-14T19:32:37.282Z,5.00
2023-08-14T19:35:04.429Z,5.00
2023-08-14T19:37:31.516Z,5.35
2023-08-14T19:39:58.289Z,5.90
2023-08-14T19:42:26.616Z,6.22
2023-08-14T19:44:53.358Z,6.53
2023-08-14T19:47:20.305Z,5.88
2023-08-14T19:49:47.414Z,6.07
2023-08-14T19:52:14.174Z,6.20
2023-08-14T19:54:41.018Z,5.88
2023-08-14T19:57:07.721Z,5.47
2023-08-14T19:59:36.417Z,5.50
2023-08-14T20:02:05.001Z,5.40
2023-08-14T20:04:31.829Z,6.00
2023-08-14T20:06:58.624Z,5.28
2023-08-14T20:09:25.957Z,5.47
2023-08-14T20:11:52.644Z,5.47
2023-08-14T20:14:20.773Z,5.60
2023-08-14T20:16:51.939Z,5.50
2023-08-14T20:19:18.644Z,5.07
2023-08-14T20:21:45.774Z,5.13
2023-08-14T20:24:12.480Z,5.65
2023-08-14T20:26:39.196Z,5.47
2023-08-14T20:29:06.216Z,5.88
2023-08-14T20:31:33.118Z,5.60
2023-08-14T20:34:01.162Z,5.75
2023-08-14T20:36:27.896Z,6.20
2023-08-14T20:38:54.686Z,6.18
2023-08-14T20:41:21.568Z,5.75
2023-08-14T20:43:48.859Z,5.93
2023-08-14T20:46:16.221Z,5.75
2023-08-14T20:48:42.959Z,5.93
2023-08-14T20:51:11.030Z,5.93
2023-08-14T20:53:37.694Z,6.32
2023-08-14T20:56:04.852Z,6.35
2023-08-14T20:58:31.645Z,5.70
2023-08-14T21:00:58.334Z,6.18
2023-08-14T21:03:25.156Z,6.28
2023-08-14T21:05:52.079Z,5.95
2023-08-14T21:08:20.927Z,5.95
2023-08-14T21:10:47.704Z,6.30
2023-08-14T21:13:14.470Z,5.78
2023-08-14T21:15:41.257Z,6.28
2023-08-14T21:18:07.977Z,5.63
2023-08-14T21:20:34.792Z,6.07
2023-08-14T21:23:01.758Z,6.15
2023-08-14T21:25:34.956Z,5.40
2023-08-14T21:28:11.101Z,6.03
2023-08-14T21:30:38.150Z,5.78
2023-08-14T21:33:05.425Z,5.35
2023-08-14T21:35:32.230Z,5.63
2023-08-14T21:37:58.977Z,5.38
2023-08-14T21:40:25.726Z,5.53
2023-08-14T21:42:53.987Z,5.60
2023-08-14T21:45:20.700Z,5.75
2023-08-14T21:47:47.636Z,5.95
2023-08-14T21:50:14.708Z,5.70
2023-08-14T21:52:41.412Z,5.70
2023-08-14T21:55:09.325Z,5.97
2023-08-14T21:57:36.411Z,5.70
2023-08-14T22:00:05.442Z,5.78
2023-08-14T22:02:32.484Z,5.82
2023-08-14T22:04:59.267Z,6.32
2023-08-14T22:07:26.173Z,5.68
2023-08-14T22:09:52.901Z,6.05
2023-08-14T22:12:19.606Z,5.88
2023-08-14T22:14:46.416Z,6.30
2023-08-14T22:17:14.569Z,6.05
2023-08-14T22:19:41.266Z,6.20
2023-08-14T22:22:08.032Z,6.32
2023-08-14T22:24:41.104Z,6.35
2023-08-14T22:27:08.611Z,6.22
2023-08-14T22:29:35.295Z,6.22
2023-08-14T22:32:02.081Z,6.25
2023-08-14T22:34:30.225Z,5.82
2023-08-14T22:36:57.284Z,6.47
2023-08-14T22:39:24.122Z,6.40
2023-08-14T22:41:50.978Z,5.85
2023-08-14T22:44:17.881Z,5.78
2023-08-14T22:46:44.576Z,6.35
2023-08-14T22:49:11.377Z,5.88
2023-08-14T22:51:39.594Z,6.00
2023-08-14T22:54:07.160Z,5.95
2023-08-14T22:56:34.472Z,6.30
2023-08-14T22:59:01.421Z,6.47
2023-08-14T23:01:29.038Z,6.30
2023-08-14T23:03:55.879Z,6.30
2023-08-14T23:06:22.831Z,6.65
2023-08-14T23:08:50.916Z,6.35
2023-08-14T23:11:18.102Z,6.25
2023-08-14T23:13:44.948Z,6.50
2023-08-14T23:16:11.676Z,6.15
2023-08-14T23:18:38.644Z,6.25
2023-08-14T23:21:05.401Z,6.55
2023-08-14T23:23:32.124Z,6.70
2023-08-14T23:26:00.290Z,6.20
2023-08-14T23:28:27.018Z,6.70
2023-08-14T23:30:53.742Z,6.68
2023-08-14T23:33:20.513Z,6.28
2023-08-14T23:35:47.197Z,6.18
2023-08-14T23:38:14.061Z,6.35
2023-08-14T23:40:40.824Z,6.35
2023-08-14T23:43:08.955Z,6.55
2023-08-14T23:45:35.738Z,6.13
2023-08-14T23:48:02.595Z,6.82
2023-08-14T23:50:29.462Z,6.60
2023-08-14T23:52:56.282Z,6.43
2023-08-14T23:55:23.056Z,6.93
2023-08-14T23:57:49.841Z,6.28
